createdAt,value
2019-04-10T00:01:48.923Z,97504.99
2019-04-10T00:04:53.651Z,97506.30
2019-04-10T00:07:58.424Z,97505.23
2019-04-10T00:11:02.868Z,97501.74
2019-04-10T00:14:08.269Z,97505.27
2019-04-10T00:17:13.168Z,97504.97
2019-04-10T00:20:18.462Z,97503.11
2019-04-10T00:23:23.004Z,97508.13
2019-04-10T00:26:27.890Z,97503.89
2019-04-10T00:29:32.429Z,97500.13
2019-04-10T00:32:38.280Z,97502.19
2019-04-10T00:35:43.764Z,97502.70
2019-04-10T00:38:48.387Z,97500.64
2019-04-10T00:41:52.832Z,97499.51
2019-04-10T00:44:57.545Z,97495.95
2019-04-10T00:48:01.988Z,97496.16
2019-04-10T00:51:06.837Z,97500.63
2019-04-10T00:54:11.939Z,97503.73
2019-04-10T00:57:17.037Z,97499.06
2019-04-10T01:00:21.984Z,97494.73
2019-04-10T01:03:43.941Z,97496.25
2019-04-10T01:06:48.515Z,97494.54
2019-04-10T01:09:53.416Z,97490.52
2019-04-10T01:12:58.729Z,97493.40
2019-04-10T01:16:04.329Z,97491.22
2019-04-10T01:19:09.936Z,97490.68
2019-04-10T01:22:14.934Z,97483.97
2019-04-10T01:25:19.487Z,97487.19
2019-04-10T01:28:24.762Z,97489.41
2019-04-10T01:31:29.601Z,97492.66
2019-04-10T01:34:34.051Z,97481.95
2019-04-10T01:37:48.642Z,97482.96
2019-04-10T01:40:45.574Z,97483.80
2019-04-10T01:43:50.998Z,97478.90
2019-04-10T01:46:55.581Z,97479.74
2019-04-10T01:50:00.091Z,97477.23
2019-04-10T01:53:04.546Z,97478.06
2019-04-10T01:56:21.226Z,97473.27
2019-04-10T01:59:17.991Z,97473.67
2019-04-10T02:02:27.391Z,97473.57
2019-04-10T02:05:33.028Z,97472.27
2019-04-10T02:08:38.227Z,97475.08
2019-04-10T02:11:43.000Z,97472.19
2019-04-10T02:14:47.497Z,97476.55
2019-04-10T02:17:52.941Z,97471.38
2019-04-10T02:20:57.471Z,97474.77
2019-04-10T02:24:02.935Z,97471.52
2019-04-10T02:27:07.874Z,97466.88
2019-04-10T02:30:15.114Z,97471.23
2019-04-10T02:33:19.747Z,97464.88
2019-04-10T02:36:25.625Z,97465.18
2019-04-10T02:39:38.166Z,97460.11
2019-04-10T02:42:38.345Z,97464.64
2019-04-10T02:45:44.435Z,97466.67
2019-04-10T02:48:50.083Z,97457.67
2019-04-10T02:51:55.062Z,97460.86
2019-04-10T02:54:59.967Z,97464.10
2019-04-10T02:58:06.094Z,97464.61
2019-04-10T03:01:11.374Z,97463.80
2019-04-10T03:04:16.622Z,97463.50
2019-04-10T03:07:23.978Z,97459.80
2019-04-10T03:10:38.243Z,97470.50
2019-04-10T03:13:36.017Z,97465.24
2019-04-10T03:16:41.765Z,97469.50
2019-04-10T03:19:46.232Z,97463.55
2019-04-10T03:22:51.385Z,97465.24
2019-04-10T03:25:57.060Z,97463.09
2019-04-10T03:29:01.720Z,97460.02
2019-04-10T03:32:28.547Z,97464.63
2019-04-10T03:35:43.824Z,97461.81
2019-04-10T03:38:56.963Z,97470.20
2019-04-10T03:41:54.809Z,97464.19
2019-04-10T03:44:59.249Z,97469.52
2019-04-10T03:48:04.897Z,97466.88
2019-04-10T03:51:09.771Z,97469.61
2019-04-10T03:54:15.190Z,97472.30
2019-04-10T03:57:20.569Z,97478.49
2019-04-10T04:00:25.882Z,97476.69
2019-04-10T04:03:30.789Z,97482.27
2019-04-10T04:06:35.493Z,97481.75
2019-04-10T04:09:40.199Z,97481.55
2019-04-10T04:12:44.923Z,97485.26
2019-04-10T04:15:50.577Z,97482.81
2019-04-10T04:18:55.079Z,97480.19
2019-04-10T04:22:00.534Z,97476.22
2019-04-10T04:25:06.743Z,97475.88
2019-04-10T04:28:11.553Z,97478.58
2019-04-10T04:31:16.078Z,97480.14
2019-04-10T04:34:20.935Z,97481.70
2019-04-10T04:37:26.009Z,97479.90
2019-04-10T04:40:30.465Z,97483.79
2019-04-10T04:43:35.206Z,97484.56
2019-04-10T04:46:40.737Z,97486.89
2019-04-10T04:49:45.254Z,97485.05
2019-04-10T04:52:49.697Z,97484.55
2019-04-10T04:55:54.227Z,97494.74
2019-04-10T04:58:59.453Z,97499.34
2019-04-10T05:02:04.311Z,97506.04
2019-04-10T05:05:08.842Z,97505.67
2019-04-10T05:08:13.275Z,97509.83
2019-04-10T05:11:18.318Z,97518.98
2019-04-10T05:14:23.799Z,97515.47
2019-04-10T05:17:28.782Z,97521.62
2019-04-10T05:20:43.729Z,97524.90
2019-04-10T05:23:39.448Z,97520.12
2019-04-10T05:26:44.889Z,97519.36
2019-04-10T05:29:50.559Z,97519.05
2019-04-10T05:32:55.687Z,97524.72
2019-04-10T05:36:01.250Z,97528.55
2019-04-10T05:39:08.504Z,97523.96
2019-04-10T05:42:13.065Z,97532.75
2019-04-10T05:45:17.507Z,97531.09
2019-04-10T05:48:23.580Z,97527.38
2019-04-10T05:51:29.039Z,97532.48
2019-04-10T05:54:33.848Z,97533.08
2019-04-10T05:57:38.284Z,97540.49
2019-04-10T06:00:43.083Z,97538.91
2019-04-10T06:03:47.514Z,97540.49
2019-04-10T06:06:52.711Z,97543.69
2019-04-10T06:10:01.898Z,97546.08
2019-04-10T06:13:03.977Z,97546.06
2019-04-10T06:16:08.401Z,97549.78
2019-04-10T06:19:12.850Z,97546.04
2019-04-10T06:22:17.300Z,97546.80
2019-04-10T06:25:24.154Z,97547.31
2019-04-10T06:28:30.582Z,97554.53
2019-04-10T06:31:34.404Z,97549.47
2019-04-10T06:34:39.662Z,97548.08
2019-04-10T06:37:46.389Z,97544.55
2019-04-10T06:40:51.019Z,97547.42
2019-04-10T06:43:55.844Z,97546.64
2019-04-10T06:47:00.295Z,97549.16
2019-04-10T06:50:07.601Z,97545.16
2019-04-10T06:53:14.630Z,97547.63
2019-04-10T06:56:18.741Z,97544.44
2019-04-10T06:59:23.455Z,97545.77
2019-04-10T07:02:30.922Z,97547.57
2019-04-10T07:05:40.875Z,97542.78
2019-04-10T07:08:46.329Z,97547.02
2019-04-10T07:11:47.938Z,97547.21
2019-04-10T07:14:57.777Z,97546.79
2019-04-10T07:17:59.407Z,97549.34
2019-04-10T07:21:04.270Z,97548.97
2019-04-10T07:24:11.014Z,97556.06
2019-04-10T07:27:16.071Z,97553.73
2019-04-10T07:30:24.107Z,97547.44
2019-04-10T07:33:27.296Z,97553.58
2019-04-10T07:36:32.902Z,97557.73
2019-04-10T07:39:37.544Z,97560.30
2019-04-10T07:42:43.341Z,97562.07
2019-04-10T07:45:47.987Z,97568.52
2019-04-10T07:48:52.742Z,97564.70
2019-04-10T07:51:58.584Z,97564.31
2019-04-10T07:55:04.405Z,97566.58
2019-04-10T07:58:08.966Z,97574.14
2019-04-10T08:01:14.093Z,97575.86
2019-04-10T08:04:18.650Z,97581.41
2019-04-10T08:07:29.821Z,97578.20
2019-04-10T08:10:29.270Z,97582.78
2019-04-10T08:13:33.968Z,97580.84
2019-04-10T08:16:39.408Z,97578.65
2019-04-10T08:19:44.032Z,97583.39
2019-04-10T08:22:49.014Z,97585.66
2019-04-10T08:25:53.818Z,97587.81
2019-04-10T08:28:59.325Z,97582.59
2019-04-10T08:32:03.855Z,97589.30
2019-04-10T08:35:09.088Z,97585.14
2019-04-10T08:38:13.637Z,97595.55
2019-04-10T08:41:19.230Z,97588.60
2019-04-10T08:44:24.379Z,97593.16
2019-04-10T08:47:28.857Z,97592.86
2019-04-10T08:50:34.449Z,97594.09
2019-04-10T08:53:39.365Z,97598.14
2019-04-10T08:56:44.836Z,97598.31
2019-04-10T08:59:49.638Z,97599.04
2019-04-10T09:02:54.767Z,97600.37
2019-04-10T09:05:59.296Z,97591.20
2019-04-10T09:09:05.493Z,97593.39
2019-04-10T09:12:10.411Z,97593.81
2019-04-10T09:15:16.045Z,97592.85
2019-04-10T09:18:21.078Z,97589.84
2019-04-10T09:21:25.590Z,97600.09
2019-04-10T09:24:30.156Z,97594.42
2019-04-10T09:27:35.854Z,97595.43
2019-04-10T09:30:40.744Z,97600.67
2019-04-10T09:33:45.411Z,97604.06
2019-04-10T09:36:51.320Z,97600.23
2019-04-10T09:39:56.510Z,97597.25
2019-04-10T09:43:01.400Z,97601.11
2019-04-10T09:46:06.484Z,97605.20
2019-04-10T09:49:12.286Z,97609.52
2019-04-10T09:52:17.023Z,97608.59
2019-04-10T09:55:22.220Z,97611.62
2019-04-10T09:58:27.102Z,97612.85
2019-04-10T10:01:31.831Z,97611.77
2019-04-10T10:04:36.284Z,97612.62
2019-04-10T10:07:41.070Z,97616.29
2019-04-10T10:10:47.104Z,97604.48
2019-04-10T10:13:52.277Z,97606.67
2019-04-10T10:16:57.977Z,97605.77
2019-04-10T10:20:03.632Z,97601.45
2019-04-10T10:23:08.162Z,97607.88
2019-04-10T10:26:13.263Z,97603.02
2019-04-10T10:29:17.738Z,97604.23
2019-04-10T10:32:22.415Z,97604.27
2019-04-10T10:35:27.305Z,97596.93
2019-04-10T10:38:31.758Z,97605.23
2019-04-10T10:41:36.255Z,97601.97
2019-04-10T10:44:40.931Z,97600.89
2019-04-10T10:47:46.357Z,97603.70
2019-04-10T10:50:51.010Z,97605.85
2019-04-10T10:53:56.596Z,97601.50
2019-04-10T10:57:01.272Z,97604.20
2019-04-10T11:00:08.745Z,97603.40
2019-04-10T11:03:14.540Z,97603.89
2019-04-10T11:06:19.326Z,97602.23
2019-04-10T11:09:23.957Z,97599.38
2019-04-10T11:12:28.730Z,97597.59
2019-04-10T11:15:34.178Z,97599.43
2019-04-10T11:18:38.689Z,97603.83
2019-04-10T11:21:43.138Z,97595.06
2019-04-10T11:24:47.585Z,97603.96
2019-04-10T11:27:52.280Z,97603.65
2019-04-10T11:30:58.304Z,97596.97
2019-04-10T11:34:04.130Z,97599.73
2019-04-10T11:43:24.387Z,97600.89
2019-04-10T11:46:31.932Z,97600.75
2019-04-10T11:49:36.875Z,97597.16
2019-04-10T11:52:48.010Z,97600.59
2019-04-10T11:55:51.104Z,97601.27
2019-04-10T12:02:03.504Z,97606.71
2019-04-10T12:05:12.010Z,97603.27
2019-04-10T12:11:21.371Z,97608.27
2019-04-10T12:14:26.278Z,97613.15
2019-04-10T12:17:30.734Z,97615.58
2019-04-10T12:20:35.432Z,97612.02
2019-04-10T12:23:40.753Z,97608.55
2019-04-10T12:26:45.720Z,97615.63
2019-04-10T12:29:51.006Z,97613.52
2019-04-10T12:32:56.835Z,97615.78
2019-04-10T12:36:02.440Z,97614.66
2019-04-10T12:39:09.356Z,97617.36
2019-04-10T12:42:14.220Z,97615.56
2019-04-10T12:45:18.801Z,97618.74
2019-04-10T12:48:23.543Z,97615.82
2019-04-10T12:51:27.993Z,97621.61
2019-04-10T12:54:33.490Z,97618.42
2019-04-10T12:57:39.083Z,97621.38
2019-04-10T13:00:44.601Z,97628.25
2019-04-10T13:03:49.541Z,97622.64
2019-04-10T13:06:54.798Z,97628.64
2019-04-10T13:09:59.524Z,97626.47
2019-04-10T13:13:04.105Z,97630.95
2019-04-10T13:16:08.570Z,97627.48
2019-04-10T13:19:13.312Z,97626.43
2019-04-10T13:22:18.058Z,97628.43
2019-04-10T13:25:22.552Z,97631.28
2019-04-10T13:28:27.608Z,97629.70
2019-04-10T13:31:33.225Z,97634.69
2019-04-10T13:34:37.763Z,97642.49
2019-04-10T13:37:43.380Z,97638.73
2019-04-10T13:40:48.139Z,97632.56
2019-04-10T13:43:53.976Z,97636.98
2019-04-10T13:46:59.447Z,97638.22
2019-04-10T13:50:06.546Z,97639.02
2019-04-10T13:53:10.981Z,97632.39
2019-04-10T13:56:15.707Z,97632.39
2019-04-10T13:59:20.734Z,97636.01
2019-04-10T14:02:30.814Z,97633.42
2019-04-10T14:05:36.919Z,97633.94
2019-04-10T14:08:58.621Z,97640.68
2019-04-10T14:11:49.200Z,97634.92
2019-04-10T14:14:53.794Z,97637.08
2019-04-10T14:17:58.245Z,97645.30
2019-04-10T14:21:07.497Z,97643.50
2019-04-10T14:24:09.569Z,97639.65
2019-04-10T14:27:16.170Z,97643.98
2019-04-10T14:30:31.623Z,97645.64
2019-04-10T14:33:36.333Z,97648.22
2019-04-10T14:36:40.853Z,97651.53
2019-04-10T14:39:45.595Z,97653.02
2019-04-10T14:42:50.049Z,97652.16
2019-04-10T14:45:54.489Z,97657.27
2019-04-10T14:48:59.276Z,97650.92
2019-04-10T14:52:05.102Z,97654.65
2019-04-10T14:55:10.382Z,97663.31
2019-04-10T14:58:24.183Z,97660.81
2019-04-10T15:01:21.990Z,97667.31
2019-04-10T15:04:26.896Z,97667.00
2019-04-10T15:07:31.651Z,97671.58
2019-04-10T15:10:36.091Z,97668.34
2019-04-10T15:13:40.811Z,97668.40
2019-04-10T15:16:54.470Z,97665.59
2019-04-10T15:19:52.588Z,97663.44
2019-04-10T15:22:58.645Z,97664.18
2019-04-10T15:26:03.864Z,97668.25
2019-04-10T15:29:08.437Z,97665.59
2019-04-10T15:32:13.286Z,97663.44
2019-04-10T15:35:18.104Z,97672.65
2019-04-10T15:38:22.556Z,97667.48
2019-04-10T15:41:27.395Z,97672.82
2019-04-10T15:44:32.346Z,97673.36
2019-04-10T15:47:37.457Z,97673.73
2019-04-10T15:50:43.395Z,97671.70
2019-04-10T15:53:49.323Z,97674.05
2019-04-10T15:56:54.201Z,97681.60
2019-04-10T15:59:58.796Z,97681.83
2019-04-10T16:03:03.195Z,97678.33
2019-04-10T16:06:08.227Z,97682.78
2019-04-10T16:09:16.865Z,97689.44
2019-04-10T16:12:23.251Z,97685.16
2019-04-10T16:15:29.657Z,97682.84
2019-04-10T16:18:35.002Z,97686.56
2019-04-10T16:21:39.537Z,97687.54
2019-04-10T16:24:44.977Z,97685.39
2019-04-10T16:27:50.018Z,97686.83
2019-04-10T16:30:55.149Z,97690.17
2019-04-10T16:34:00.601Z,97693.98
2019-04-10T16:37:06.117Z,97688.47
2019-04-10T16:40:11.787Z,97690.99
2019-04-10T16:43:18.062Z,97692.27
2019-04-10T16:46:23.782Z,97696.14
2019-04-10T16:49:28.910Z,97705.52
2019-04-10T16:52:33.807Z,97703.86
2019-04-10T16:55:38.531Z,97712.91
2019-04-10T16:58:44.440Z,97707.64
2019-04-10T17:01:49.318Z,97716.41
2019-04-10T17:04:54.222Z,97720.90
2019-04-10T17:07:59.303Z,97731.30
2019-04-10T17:11:07.050Z,97736.01
2019-04-10T17:14:13.014Z,97730.86
2019-04-10T17:17:18.026Z,97736.27
2019-04-10T17:20:24.592Z,97732.19
2019-04-10T17:23:29.112Z,97735.61
2019-04-10T17:26:34.992Z,97739.45
2019-04-10T17:29:40.970Z,97736.62
2019-04-10T17:32:46.623Z,97742.08
2019-04-10T17:35:51.817Z,97742.92
2019-04-10T17:38:56.422Z,97745.02
2019-04-10T17:42:00.863Z,97754.02
2019-04-10T17:45:08.020Z,97749.02
2019-04-10T17:48:13.670Z,97753.70
2019-04-10T17:51:19.673Z,97753.55
2019-04-10T17:54:25.066Z,97759.71
2019-04-10T17:57:38.089Z,97768.13
2019-04-10T18:00:43.278Z,97773.89
2019-04-10T18:03:53.166Z,97772.31
2019-04-10T18:06:55.444Z,97773.80
2019-04-10T18:10:00.330Z,97782.95
2019-04-10T18:13:05.334Z,97775.87
2019-04-10T18:16:10.661Z,97786.14
2019-04-10T18:19:15.559Z,97786.52
2019-04-10T18:22:20.660Z,97785.47
2019-04-10T18:25:25.638Z,97794.69
2019-04-10T18:28:32.381Z,97801.38
2019-04-10T18:31:36.824Z,97805.92
2019-04-10T18:34:42.348Z,97807.27
2019-04-10T18:37:48.039Z,97806.99
2019-04-10T18:41:00.656Z,97811.00
2019-04-10T18:44:00.539Z,97813.48
2019-04-10T18:47:05.385Z,97824.88
2019-04-10T18:50:11.885Z,97830.41
2019-04-10T18:53:17.105Z,97834.64
2019-04-10T18:56:22.039Z,97834.41
2019-04-10T18:59:34.436Z,97837.66
2019-04-10T19:02:39.137Z,97843.97
2019-04-10T19:06:00.707Z,97840.77
2019-04-10T19:09:15.399Z,97844.72
2019-04-10T19:12:14.686Z,97848.09
2019-04-10T19:15:20.303Z,97854.63
2019-04-10T19:18:25.912Z,97853.83
2019-04-10T19:21:31.603Z,97851.75
2019-04-10T19:24:36.347Z,97849.31
2019-04-10T19:27:40.747Z,97859.28
2019-04-10T19:30:47.675Z,97855.20
2019-04-10T19:33:52.246Z,97868.93
2019-04-10T19:36:56.704Z,97863.91
2019-04-10T19:40:02.623Z,97865.76
2019-04-10T19:43:08.333Z,97868.47
2019-04-10T19:46:13.160Z,97871.26
2019-04-10T19:49:17.604Z,97874.85
2019-04-10T19:52:22.459Z,97869.05
2019-04-10T19:55:27.470Z,97873.08
2019-04-10T19:58:32.313Z,97880.19
2019-04-10T20:01:38.036Z,97877.00
2019-04-10T20:04:43.040Z,97882.17
2019-04-10T20:07:47.913Z,97889.98
2019-04-10T20:10:52.359Z,97893.06
2019-04-10T20:13:59.664Z,97904.06
2019-04-10T20:17:03.871Z,97902.02
2019-04-10T20:20:08.541Z,97902.48
2019-04-10T20:23:14.089Z,97899.85
2019-04-10T20:26:18.888Z,97893.53
2019-04-10T20:29:23.317Z,97885.13
2019-04-10T20:32:28.048Z,97896.31
2019-04-10T20:35:34.040Z,97906.29
2019-04-10T20:38:38.788Z,97900.39
2019-04-10T20:41:51.021Z,97903.09
2019-04-10T20:44:49.917Z,97906.80
2019-04-10T20:47:54.358Z,97902.86
2019-04-10T20:50:59.064Z,97904.75
2019-04-10T20:54:04.394Z,97906.36
2019-04-10T20:57:08.940Z,97903.75
2019-04-10T21:00:32.196Z,97908.47
2019-04-10T21:03:36.715Z,97912.84
2019-04-10T21:06:42.337Z,97908.59
2019-04-10T21:09:48.150Z,97912.28
2019-04-10T21:12:52.691Z,97916.27
2019-04-10T21:15:58.386Z,97918.34
2019-04-10T21:19:03.086Z,97923.36
2019-04-10T21:22:08.166Z,97925.88
2019-04-10T21:25:13.012Z,97925.48
2019-04-10T21:28:18.371Z,97926.30
2019-04-10T21:31:30.382Z,97930.73
2019-04-10T21:34:37.006Z,97941.03
2019-04-10T21:37:42.388Z,97936.40
2019-04-10T21:40:47.426Z,97935.94
2019-04-10T21:43:52.263Z,97935.30
2019-04-10T21:46:57.215Z,97943.25
2019-04-10T21:50:02.603Z,97942.14
2019-04-10T21:53:08.112Z,97951.45
2019-04-10T21:56:13.019Z,97948.02
2019-04-10T21:59:18.338Z,97954.44
2019-04-10T22:02:23.834Z,97960.41
2019-04-10T22:05:28.397Z,97962.28
2019-04-10T22:08:49.959Z,97966.87
2019-04-10T22:11:57.400Z,97970.33
2019-04-10T22:15:04.446Z,97969.86
2019-04-10T22:18:09.461Z,97974.47
2019-04-10T22:21:14.496Z,97978.50
2019-04-10T22:24:18.966Z,97975.08
2019-04-10T22:27:23.670Z,97974.13
2019-04-10T22:30:29.509Z,97983.27
2019-04-10T22:33:34.467Z,97989.16
2019-04-10T22:36:39.546Z,97993.14
2019-04-10T22:39:44.432Z,97993.12
2019-04-10T22:42:49.858Z,97997.97
2019-04-10T22:45:54.995Z,98001.98
2019-04-10T22:48:59.453Z,97999.35
2019-04-10T22:52:04.696Z,98000.75
2019-04-10T22:55:09.310Z,97993.77
2019-04-10T22:58:14.956Z,97995.44
2019-04-10T23:01:20.635Z,98000.03
2019-04-10T23:04:26.464Z,97998.52
2019-04-10T23:07:30.869Z,98003.65
2019-04-10T23:10:35.637Z,98014.41
2019-04-10T23:13:40.501Z,98008.77
2019-04-10T23:16:46.176Z,98007.69
2019-04-10T23:19:52.230Z,98011.45
2019-04-10T23:22:56.930Z,98015.76
2019-04-10T23:26:01.717Z,98016.55
2019-04-10T23:29:06.291Z,98018.72
2019-04-10T23:32:11.229Z,98021.14
2019-04-10T23:35:16.816Z,98020.35
2019-04-10T23:38:21.791Z,98028.66
2019-04-10T23:41:26.532Z,98031.60
2019-04-10T23:44:31.178Z,98033.70
2019-04-10T23:47:36.059Z,98035.59
2019-04-10T23:50:40.819Z,98045.20
2019-04-10T23:53:46.691Z,98044.93
2019-04-10T23:56:52.585Z,98054.85
2019-04-10T23:59:57.373Z,98048.44
